sensor_id;sensor_type;location;lat;lon;timestamp;temperature;humidity
9658;DHT22;4867;48.112;11.622;2023-03-26T00:01:26;7.80;99.90
9658;DHT22;4867;48.112;11.622;2023-03-26T00:03:53;7.80;99.90
9658;DHT22;4867;48.112;11.622;2023-03-26T00:06:27;7.80;99.90
9658;DHT22;4867;48.112;11.622;2023-03-26T00:08:57;7.90;99.90
9658;DHT22;4867;48.112;11.622;2023-03-26T00:11:26;7.90;99.90
9658;DHT22;4867;48.112;11.622;2023-03-26T00:13:55;7.90;99.90
9658;DHT22;4867;48.112;11.622;2023-03-26T00:16:30;7.90;99.90
9658;DHT22;4867;48.112;11.622;2023-03-26T00:18:58;7.90;99.90
9658;DHT22;4867;48.112;11.622;2023-03-26T00:21:29;7.90;99.90
9658;DHT22;4867;48.112;11.622;2023-03-26T00:24:09;7.90;99.90
9658;DHT22;4867;48.112;11.622;2023-03-26T00:26:37;7.90;99.90
9658;DHT22;4867;48.112;11.622;2023-03-26T00:29:07;7.80;99.90
9658;DHT22;4867;48.112;11.622;2023-03-26T00:31:36;7.80;99.90
9658;DHT22;4867;48.112;11.622;2023-03-26T00:34:11;7.80;99.90
9658;DHT22;4867;48.112;11.622;2023-03-26T00:36:41;7.70;99.90
9658;DHT22;4867;48.112;11.622;2023-03-26T00:39:09;7.70;99.90
9658;DHT22;4867;48.112;11.622;2023-03-26T00:41:37;7.70;99.90
9658;DHT22;4867;48.112;11.622;2023-03-26T00:44:09;7.60;99.90
9658;DHT22;4867;48.112;11.622;2023-03-26T00:46:37;7.60;99.90
9658;DHT22;4867;48.112;11.622;2023-03-26T00:49:04;7.50;99.90
9658;DHT22;4867;48.112;11.622;2023-03-26T00:51:37;7.50;99.90
9658;DHT22;4867;48.112;11.622;2023-03-26T00:54:05;7.40;99.90
9658;DHT22;4867;48.112;11.622;2023-03-26T00:56:34;7.50;99.90
9658;DHT22;4867;48.112;11.622;2023-03-26T00:59:01;7.50;99.90
9658;DHT22;4867;48.112;11.622;2023-03-26T01:01:29;7.40;99.90
9658;DHT22;4867;48.112;11.622;2023-03-26T01:03:58;7.50;99.90
9658;DHT22;4867;48.112;11.622;2023-03-26T01:06:45;7.50;99.90
9658;DHT22;4867;48.112;11.622;2023-03-26T01:09:18;7.40;99.90
9658;DHT22;4867;48.112;11.622;2023-03-26T01:11:47;7.40;99.90
9658;DHT22;4867;48.112;11.622;2023-03-26T01:14:18;7.40;99.90
9658;DHT22;4867;48.112;11.622;2023-03-26T01:16:51;7.40;99.90
9658;DHT22;4867;48.112;11.622;2023-03-26T01:19:53;7.40;99.90
9658;DHT22;4867;48.112;11.622;2023-03-26T01:22:25;7.40;99.90
9658;DHT22;4867;48.112;11.622;2023-03-26T01:24:53;7.40;99.90
9658;DHT22;4867;48.112;11.622;2023-03-26T01:27:45;7.40;99.90
9658;DHT22;4867;48.112;11.622;2023-03-26T01:33:21;7.30;99.90
9658;DHT22;4867;48.112;11.622;2023-03-26T01:39:38;7.30;99.90
9658;DHT22;4867;48.112;11.622;2023-03-26T01:42:11;7.20;99.90
9658;DHT22;4867;48.112;11.622;2023-03-26T01:44:55;7.20;99.90
9658;DHT22;4867;48.112;11.622;2023-03-26T01:47:23;7.20;99.90
9658;DHT22;4867;48.112;11.622;2023-03-26T01:49:51;7.20;99.90
9658;DHT22;4867;48.112;11.622;2023-03-26T01:52:21;7.20;99.90
9658;DHT22;4867;48.112;11.622;2023-03-26T01:54:53;7.20;99.90
9658;DHT22;4867;48.112;11.622;2023-03-26T01:57:48;7.20;99.90
9658;DHT22;4867;48.112;11.622;2023-03-26T02:03:21;7.20;99.90
9658;DHT22;4867;48.112;11.622;2023-03-26T02:06:00;7.10;99.90
9658;DHT22;4867;48.112;11.622;2023-03-26T02:08:38;7.10;99.90
9658;DHT22;4867;48.112;11.622;2023-03-26T02:11:13;7.10;99.90
9658;DHT22;4867;48.112;11.622;2023-03-26T02:13:44;7.00;99.90
9658;DHT22;4867;48.112;11.622;2023-03-26T02:16:14;7.10;99.90
9658;DHT22;4867;48.112;11.622;2023-03-26T02:18:45;7.00;99.90
9658;DHT22;4867;48.112;11.622;2023-03-26T02:21:18;7.00;99.90
9658;DHT22;4867;48.112;11.622;2023-03-26T02:23:48;7.00;99.90
9658;DHT22;4867;48.112;11.622;2023-03-26T02:26:18;7.00;99.90
9658;DHT22;4867;48.112;11.622;2023-03-26T02:29:03;7.10;99.90
9658;DHT22;4867;48.112;11.622;2023-03-26T02:31:31;7.10;99.90
9658;DHT22;4867;48.112;11.622;2023-03-26T02:33:59;7.10;99.90
9658;DHT22;4867;48.112;11.622;2023-03-26T02:36:28;7.10;99.90
9658;DHT22;4867;48.112;11.622;2023-03-26T02:38:59;7.10;99.90
9658;DHT22;4867;48.112;11.622;2023-03-26T02:41:29;7.10;99.90
9658;DHT22;4867;48.112;11.622;2023-03-26T02:44:01;7.10;99.90
9658;DHT22;4867;48.112;11.622;2023-03-26T02:46:47;7.20;99.90
9658;DHT22;4867;48.112;11.622;2023-03-26T02:49:33;7.20;99.90
9658;DHT22;4867;48.112;11.622;2023-03-26T02:52:01;7.20;99.90
9658;DHT22;4867;48.112;11.622;2023-03-26T02:54:34;7.20;99.90
9658;DHT22;4867;48.112;11.622;2023-03-26T02:57:22;7.20;99.90
9658;DHT22;4867;48.112;11.622;2023-03-26T03:00:04;7.20;99.90
9658;DHT22;4867;48.112;11.622;2023-03-26T03:02:47;7.20;99.90
9658;DHT22;4867;48.112;11.622;2023-03-26T03:05:30;7.20;99.90
9658;DHT22;4867;48.112;11.622;2023-03-26T03:08:25;7.30;99.90
9658;DHT22;4867;48.112;11.622;2023-03-26T03:11:11;7.20;99.90
9658;DHT22;4867;48.112;11.622;2023-03-26T03:13:47;7.20;99.90
9658;DHT22;4867;48.112;11.622;2023-03-26T03:16:18;7.30;99.90
9658;DHT22;4867;48.112;11.622;2023-03-26T03:18:46;7.30;99.90
9658;DHT22;4867;48.112;11.622;2023-03-26T03:21:27;7.30;99.90
9658;DHT22;4867;48.112;11.622;2023-03-26T03:23:55;7.30;99.90
9658;DHT22;4867;48.112;11.622;2023-03-26T03:26:27;7.30;99.90
9658;DHT22;4867;48.112;11.622;2023-03-26T03:28:58;7.30;99.90
9658;DHT22;4867;48.112;11.622;2023-03-26T03:31:26;7.30;99.90
9658;DHT22;4867;48.112;11.622;2023-03-26T03:33:59;7.30;99.90
9658;DHT22;4867;48.112;11.622;2023-03-26T03:36:30;7.30;99.90
9658;DHT22;4867;48.112;11.622;2023-03-26T03:39:06;7.30;99.90
9658;DHT22;4867;48.112;11.622;2023-03-26T03:41:34;7.30;99.90
9658;DHT22;4867;48.112;11.622;2023-03-26T03:44:04;7.30;99.90
9658;DHT22;4867;48.112;11.622;2023-03-26T03:46:33;7.30;99.90
9658;DHT22;4867;48.112;11.622;2023-03-26T03:49:01;7.30;99.90
9658;DHT22;4867;48.112;11.622;2023-03-26T03:51:33;7.30;99.90
9658;DHT22;4867;48.112;11.622;2023-03-26T03:54:03;7.30;99.90
9658;DHT22;4867;48.112;11.622;2023-03-26T03:56:51;7.30;99.90
9658;DHT22;4867;48.112;11.622;2023-03-26T03:59:44;7.40;99.90
9658;DHT22;4867;48.112;11.622;2023-03-26T04:02:15;7.30;99.90
9658;DHT22;4867;48.112;11.622;2023-03-26T04:04:56;7.30;99.90
9658;DHT22;4867;48.112;11.622;2023-03-26T04:07:24;7.30;99.90
9658;DHT22;4867;48.112;11.622;2023-03-26T04:10:06;7.30;99.90
9658;DHT22;4867;48.112;11.622;2023-03-26T04:12:53;7.30;99.90
9658;DHT22;4867;48.112;11.622;2023-03-26T04:15:40;7.40;99.90
9658;DHT22;4867;48.112;11.622;2023-03-26T04:18:08;7.40;99.90
9658;DHT22;4867;48.112;11.622;2023-03-26T04:20:38;7.40;99.90
9658;DHT22;4867;48.112;11.622;2023-03-26T04:23:17;7.40;99.90
9658;DHT22;4867;48.112;11.622;2023-03-26T04:25:50;7.50;99.90
9658;DHT22;4867;48.112;11.622;2023-03-26T04:28:39;7.50;99.90
9658;DHT22;4867;48.112;11.622;2023-03-26T04:31:34;7.50;99.90
9658;DHT22;4867;48.112;11.622;2023-03-26T04:34:17;7.50;99.90
9658;DHT22;4867;48.112;11.622;2023-03-26T04:36:56;7.40;99.90
9658;DHT22;4867;48.112;11.622;2023-03-26T04:39:29;7.40;99.90
9658;DHT22;4867;48.112;11.622;2023-03-26T04:42:22;7.40;99.90
9658;DHT22;4867;48.112;11.622;2023-03-26T04:45:07;7.40;99.90
9658;DHT22;4867;48.112;11.622;2023-03-26T04:47:39;7.40;99.90
9658;DHT22;4867;48.112;11.622;2023-03-26T04:50:08;7.40;99.90
9658;DHT22;4867;48.112;11.622;2023-03-26T04:52:37;7.40;99.90
9658;DHT22;4867;48.112;11.622;2023-03-26T04:55:37;7.40;99.90
9658;DHT22;4867;48.112;11.622;2023-03-26T04:58:14;7.50;99.90
9658;DHT22;4867;48.112;11.622;2023-03-26T05:01:01;7.50;99.90
9658;DHT22;4867;48.112;11.622;2023-03-26T05:03:39;7.50;99.90
9658;DHT22;4867;48.112;11.622;2023-03-26T05:06:12;7.50;99.90
9658;DHT22;4867;48.112;11.622;2023-03-26T05:08:40;7.50;99.90
9658;DHT22;4867;48.112;11.622;2023-03-26T05:11:14;7.50;99.90
9658;DHT22;4867;48.112;11.622;2023-03-26T05:13:41;7.60;99.90
9658;DHT22;4867;48.112;11.622;2023-03-26T05:16:12;7.60;99.90
9658;DHT22;4867;48.112;11.622;2023-03-26T05:18:54;7.70;99.90
9658;DHT22;4867;48.112;11.622;2023-03-26T05:21:27;7.70;99.90
9658;DHT22;4867;48.112;11.622;2023-03-26T05:23:55;7.70;99.90
9658;DHT22;4867;48.112;11.622;2023-03-26T05:26:22;7.70;99.90
9658;DHT22;4867;48.112;11.622;2023-03-26T05:28:50;7.70;99.90
9658;DHT22;4867;48.112;11.622;2023-03-26T05:31:31;7.70;99.90
9658;DHT22;4867;48.112;11.622;2023-03-26T05:34:00;7.70;99.90
9658;DHT22;4867;48.112;11.622;2023-03-26T05:36:28;7.80;99.90
9658;DHT22;4867;48.112;11.622;2023-03-26T05:39:04;7.80;99.90
9658;DHT22;4867;48.112;11.622;2023-03-26T05:41:55;7.90;99.90
9658;DHT22;4867;48.112;11.622;2023-03-26T05:44:29;7.90;99.90
9658;DHT22;4867;48.112;11.622;2023-03-26T05:47:00;7.90;99.90
9658;DHT22;4867;48.112;11.622;2023-03-26T05:49:28;7.90;99.90
9658;DHT22;4867;48.112;11.622;2023-03-26T05:51:55;8.00;99.90
9658;DHT22;4867;48.112;11.622;2023-03-26T05:54:45;8.00;99.90
9658;DHT22;4867;48.112;11.622;2023-03-26T05:57:31;8.10;99.90
9658;DHT22;4867;48.112;11.622;2023-03-26T06:00:17;8.10;99.90
9658;DHT22;4867;48.112;11.622;2023-03-26T06:02:44;8.20;99.90
9658;DHT22;4867;48.112;11.622;2023-03-26T06:05:28;8.30;99.90
9658;DHT22;4867;48.112;11.622;2023-03-26T06:08:08;8.30;99.90
9658;DHT22;4867;48.112;11.622;2023-03-26T06:10:38;8.20;99.90
9658;DHT22;4867;48.112;11.622;2023-03-26T06:13:05;8.20;99.90
9658;DHT22;4867;48.112;11.622;2023-03-26T06:15:36;8.20;99.90
9658;DHT22;4867;48.112;11.622;2023-03-26T06:18:26;8.30;99.90
9658;DHT22;4867;48.112;11.622;2023-03-26T06:21:19;8.30;99.90
9658;DHT22;4867;48.112;11.622;2023-03-26T06:23:57;8.40;99.90
9658;DHT22;4867;48.112;11.622;2023-03-26T06:26:37;8.50;99.90
9658;DHT22;4867;48.112;11.622;2023-03-26T06:29:24;8.50;99.90
9658;DHT22;4867;48.112;11.622;2023-03-26T06:32:10;8.50;99.90
9658;DHT22;4867;48.112;11.622;2023-03-26T06:35:07;8.60;99.90
9658;DHT22;4867;48.112;11.622;2023-03-26T06:37:34;8.60;99.90
9658;DHT22;4867;48.112;11.622;2023-03-26T06:40:02;8.60;99.90
9658;DHT22;4867;48.112;11.622;2023-03-26T06:43:02;8.70;99.90
9658;DHT22;4867;48.112;11.622;2023-03-26T06:45:39;8.70;99.90
9658;DHT22;4867;48.112;11.622;2023-03-26T06:48:32;8.80;99.90
9658;DHT22;4867;48.112;11.622;2023-03-26T06:51:12;8.80;99.90
9658;DHT22;4867;48.112;11.622;2023-03-26T06:53:57;8.80;99.90
9658;DHT22;4867;48.112;11.622;2023-03-26T06:57:03;8.90;99.90
9658;DHT22;4867;48.112;11.622;2023-03-26T06:59:42;8.90;99.90
9658;DHT22;4867;48.112;11.622;2023-03-26T07:02:28;8.90;99.90
9658;DHT22;4867;48.112;11.622;2023-03-26T07:05:14;8.80;99.90
9658;DHT22;4867;48.112;11.622;2023-03-26T07:08:01;8.80;99.90
9658;DHT22;4867;48.112;11.622;2023-03-26T07:10:49;8.80;99.90
9658;DHT22;4867;48.112;11.622;2023-03-26T07:13:34;9.00;99.90
9658;DHT22;4867;48.112;11.622;2023-03-26T07:16:20;8.90;99.90
9658;DHT22;4867;48.112;11.622;2023-03-26T07:18:54;8.90;99.90
9658;DHT22;4867;48.112;11.622;2023-03-26T07:21:26;8.80;99.90
9658;DHT22;4867;48.112;11.622;2023-03-26T07:23:53;8.80;99.90
9658;DHT22;4867;48.112;11.622;2023-03-26T07:26:48;8.90;99.90
9658;DHT22;4867;48.112;11.622;2023-03-26T07:29:36;8.80;99.90
9658;DHT22;4867;48.112;11.622;2023-03-26T07:32:22;8.80;99.90
9658;DHT22;4867;48.112;11.622;2023-03-26T07:41:45;8.70;99.90
9658;DHT22;4867;48.112;11.622;2023-03-26T07:44:50;8.70;99.90
9658;DHT22;4867;48.112;11.622;2023-03-26T07:47:57;8.70;99.90
9658;DHT22;4867;48.112;11.622;2023-03-26T07:50:44;8.70;99.90
9658;DHT22;4867;48.112;11.622;2023-03-26T07:53:25;8.70;99.90
9658;DHT22;4867;48.112;11.622;2023-03-26T07:56:14;8.80;99.90
9658;DHT22;4867;48.112;11.622;2023-03-26T07:59:55;8.80;99.90
9658;DHT22;4867;48.112;11.622;2023-03-26T08:17:39;9.20;99.90
9658;DHT22;4867;48.112;11.622;2023-03-26T08:20:36;9.30;99.90
9658;DHT22;4867;48.112;11.622;2023-03-26T08:23:16;9.30;99.90
9658;DHT22;4867;48.112;11.622;2023-03-26T08:26:06;9.30;99.90
9658;DHT22;4867;48.112;11.622;2023-03-26T08:31:33;9.30;99.90
9658;DHT22;4867;48.112;11.622;2023-03-26T08:34:01;9.30;99.90
9658;DHT22;4867;48.112;11.622;2023-03-26T08:36:28;9.30;99.90
9658;DHT22;4867;48.112;11.622;2023-03-26T08:38:55;9.30;99.90
9658;DHT22;4867;48.112;11.622;2023-03-26T08:41:35;9.40;99.90
9658;DHT22;4867;48.112;11.622;2023-03-26T08:50:13;9.70;99.90
9658;DHT22;4867;48.112;11.622;2023-03-26T08:59:04;10.00;99.90
9658;DHT22;4867;48.112;11.622;2023-03-26T09:10:38;10.20;99.90
9658;DHT22;4867;48.112;11.622;2023-03-26T09:27:06;9.80;99.90
9658;DHT22;4867;48.112;11.622;2023-03-26T09:32:50;9.80;99.90
9658;DHT22;4867;48.112;11.622;2023-03-26T09:41:08;9.70;99.90
9658;DHT22;4867;48.112;11.622;2023-03-26T09:49:11;9.50;99.90
9658;DHT22;4867;48.112;11.622;2023-03-26T09:58:05;9.40;99.90
9658;DHT22;4867;48.112;11.622;2023-03-26T10:08:15;9.40;99.90
9658;DHT22;4867;48.112;11.622;2023-03-26T10:11:00;9.50;99.90
9658;DHT22;4867;48.112;11.622;2023-03-26T10:13:42;9.60;99.90
9658;DHT22;4867;48.112;11.622;2023-03-26T10:17:04;9.60;99.90
9658;DHT22;4867;48.112;11.622;2023-03-26T10:22:20;9.60;99.90
9658;DHT22;4867;48.112;11.622;2023-03-26T10:28:08;9.70;99.90
9658;DHT22;4867;48.112;11.622;2023-03-26T10:33:59;9.60;99.90
9658;DHT22;4867;48.112;11.622;2023-03-26T10:36:37;9.60;99.90
9658;DHT22;4867;48.112;11.622;2023-03-26T10:41:55;9.50;99.90
9658;DHT22;4867;48.112;11.622;2023-03-26T10:50:22;9.40;99.90
9658;DHT22;4867;48.112;11.622;2023-03-26T10:55:38;9.40;99.90
9658;DHT22;4867;48.112;11.622;2023-03-26T10:58:16;9.20;99.90
9658;DHT22;4867;48.112;11.622;2023-03-26T11:03:54;9.00;99.90
9658;DHT22;4867;48.112;11.622;2023-03-26T11:09:25;9.00;99.90
9658;DHT22;4867;48.112;11.622;2023-03-26T11:12:06;9.10;99.90
9658;DHT22;4867;48.112;11.622;2023-03-26T11:20:30;9.20;99.90
9658;DHT22;4867;48.112;11.622;2023-03-26T11:26:04;9.30;99.90
9658;DHT22;4867;48.112;11.622;2023-03-26T11:34:37;9.50;99.90
9658;DHT22;4867;48.112;11.622;2023-03-26T11:37:11;9.50;99.90
9658;DHT22;4867;48.112;11.622;2023-03-26T11:39:54;9.30;99.90
9658;DHT22;4867;48.112;11.622;2023-03-26T11:42:23;9.30;99.90
9658;DHT22;4867;48.112;11.622;2023-03-26T11:45:02;9.30;99.90
9658;DHT22;4867;48.112;11.622;2023-03-26T11:47:37;9.10;99.90
9658;DHT22;4867;48.112;11.622;2023-03-26T11:50:08;8.90;99.90
9658;DHT22;4867;48.112;11.622;2023-03-26T11:52:36;8.70;99.90
9658;DHT22;4867;48.112;11.622;2023-03-26T11:55:04;8.50;99.90
9658;DHT22;4867;48.112;11.622;2023-03-26T11:57:34;8.50;99.90
9658;DHT22;4867;48.112;11.622;2023-03-26T12:00:14;8.40;99.90
9658;DHT22;4867;48.112;11.622;2023-03-26T12:02:46;8.40;99.90
9658;DHT22;4867;48.112;11.622;2023-03-26T12:05:21;8.60;99.90
9658;DHT22;4867;48.112;11.622;2023-03-26T12:07:54;8.70;99.90
9658;DHT22;4867;48.112;11.622;2023-03-26T12:13:20;9.00;99.90
9658;DHT22;4867;48.112;11.622;2023-03-26T12:15:56;9.00;99.90
9658;DHT22;4867;48.112;11.622;2023-03-26T12:18:26;9.10;99.90
9658;DHT22;4867;48.112;11.622;2023-03-26T12:23:53;9.40;99.90
9658;DHT22;4867;48.112;11.622;2023-03-26T12:26:37;9.60;99.90
9658;DHT22;4867;48.112;11.622;2023-03-26T12:29:11;9.80;99.90
9658;DHT22;4867;48.112;11.622;2023-03-26T12:34:17;10.20;99.90
9658;DHT22;4867;48.112;11.622;2023-03-26T12:36:55;10.10;99.90
9658;DHT22;4867;48.112;11.622;2023-03-26T12:39:36;10.30;99.90
9658;DHT22;4867;48.112;11.622;2023-03-26T12:42:30;10.40;99.90
9658;DHT22;4867;48.112;11.622;2023-03-26T12:45:21;10.40;99.90
9658;DHT22;4867;48.112;11.622;2023-03-26T12:47:51;10.40;99.90
9658;DHT22;4867;48.112;11.622;2023-03-26T12:50:44;10.40;99.90
9658;DHT22;4867;48.112;11.622;2023-03-26T12:56:25;10.50;99.90
9658;DHT22;4867;48.112;11.622;2023-03-26T13:02:01;10.50;99.90
9658;DHT22;4867;48.112;11.622;2023-03-26T13:07:55;10.40;99.90
9658;DHT22;4867;48.112;11.622;2023-03-26T13:13:17;10.30;99.90
9658;DHT22;4867;48.112;11.622;2023-03-26T13:15:52;10.40;99.90
9658;DHT22;4867;48.112;11.622;2023-03-26T13:18:49;10.40;99.90
9658;DHT22;4867;48.112;11.622;2023-03-26T13:24:37;10.30;99.90
9658;DHT22;4867;48.112;11.622;2023-03-26T13:27:21;10.30;99.90
9658;DHT22;4867;48.112;11.622;2023-03-26T13:30:04;10.30;99.90
9658;DHT22;4867;48.112;11.622;2023-03-26T13:32:57;10.30;99.90
9658;DHT22;4867;48.112;11.622;2023-03-26T13:39:04;10.40;99.90
9658;DHT22;4867;48.112;11.622;2023-03-26T13:41:54;10.40;99.90
9658;DHT22;4867;48.112;11.622;2023-03-26T13:44:56;10.30;99.90
9658;DHT22;4867;48.112;11.622;2023-03-26T13:47:35;10.30;99.90
9658;DHT22;4867;48.112;11.622;2023-03-26T13:52:54;10.20;99.90
9658;DHT22;4867;48.112;11.622;2023-03-26T13:55:35;10.20;99.90
9658;DHT22;4867;48.112;11.622;2023-03-26T14:01:14;10.30;99.90
9658;DHT22;4867;48.112;11.622;2023-03-26T14:09:02;10.40;99.90
9658;DHT22;4867;48.112;11.622;2023-03-26T14:12:00;10.50;99.90
9658;DHT22;4867;48.112;11.622;2023-03-26T14:17:20;10.50;99.90
9658;DHT22;4867;48.112;11.622;2023-03-26T14:19:58;10.50;99.90
9658;DHT22;4867;48.112;11.622;2023-03-26T14:34:53;10.10;99.90
9658;DHT22;4867;48.112;11.622;2023-03-26T14:37:46;10.10;99.90
9658;DHT22;4867;48.112;11.622;2023-03-26T14:46:49;10.20;99.90
9658;DHT22;4867;48.112;11.622;2023-03-26T14:49:53;10.30;99.90
9658;DHT22;4867;48.112;11.622;2023-03-26T14:55:14;10.40;99.90
9658;DHT22;4867;48.112;11.622;2023-03-26T14:57:59;10.40;99.90
9658;DHT22;4867;48.112;11.622;2023-03-26T15:04:10;10.30;99.90
9658;DHT22;4867;48.112;11.622;2023-03-26T15:15:52;10.30;99.90
9658;DHT22;4867;48.112;11.622;2023-03-26T15:23:46;10.40;99.90
9658;DHT22;4867;48.112;11.622;2023-03-26T15:29:42;10.40;99.90
9658;DHT22;4867;48.112;11.622;2023-03-26T15:35:58;10.30;99.90
9658;DHT22;4867;48.112;11.622;2023-03-26T15:38:36;10.30;99.90
9658;DHT22;4867;48.112;11.622;2023-03-26T15:41:51;10.30;99.90
9658;DHT22;4867;48.112;11.622;2023-03-26T15:47:18;10.30;99.90
9658;DHT22;4867;48.112;11.622;2023-03-26T15:53:17;10.20;99.90
9658;DHT22;4867;48.112;11.622;2023-03-26T15:56:46;10.10;99.90
9658;DHT22;4867;48.112;11.622;2023-03-26T16:07:40;9.50;99.90
9658;DHT22;4867;48.112;11.622;2023-03-26T16:18:48;9.00;99.90
9658;DHT22;4867;48.112;11.622;2023-03-26T16:29:25;8.60;99.90
9658;DHT22;4867;48.112;11.622;2023-03-26T16:32:04;8.50;99.90
9658;DHT22;4867;48.112;11.622;2023-03-26T16:48:28;8.50;99.90
9658;DHT22;4867;48.112;11.622;2023-03-26T16:51:26;8.60;99.90
9658;DHT22;4867;48.112;11.622;2023-03-26T17:03:16;8.60;99.90
9658;DHT22;4867;48.112;11.622;2023-03-26T17:08:55;8.50;99.90
9658;DHT22;4867;48.112;11.622;2023-03-26T17:20:56;8.40;99.90
9658;DHT22;4867;48.112;11.622;2023-03-26T17:37:08;8.20;99.90
9658;DHT22;4867;48.112;11.622;2023-03-26T17:42:18;8.20;99.90
9658;DHT22;4867;48.112;11.622;2023-03-26T17:50:00;8.20;99.90
9658;DHT22;4867;48.112;11.622;2023-03-26T17:52:48;8.10;99.90
9658;DHT22;4867;48.112;11.622;2023-03-26T17:55:23;8.10;99.90
9658;DHT22;4867;48.112;11.622;2023-03-26T17:57:57;8.10;99.90
9658;DHT22;4867;48.112;11.622;2023-03-26T18:00:38;8.00;99.90
9658;DHT22;4867;48.112;11.622;2023-03-26T18:12:36;7.60;99.90
9658;DHT22;4867;48.112;11.622;2023-03-26T18:15:26;7.50;99.90
9658;DHT22;4867;48.112;11.622;2023-03-26T18:18:07;7.30;99.90
9658;DHT22;4867;48.112;11.622;2023-03-26T18:20:35;7.20;99.90
9658;DHT22;4867;48.112;11.622;2023-03-26T18:23:09;7.10;99.90
9658;DHT22;4867;48.112;11.622;2023-03-26T18:25:37;7.00;99.90
9658;DHT22;4867;48.112;11.622;2023-03-26T18:28:09;6.90;99.90
9658;DHT22;4867;48.112;11.622;2023-03-26T18:30:45;6.80;99.90
9658;DHT22;4867;48.112;11.622;2023-03-26T18:33:14;6.80;99.90
9658;DHT22;4867;48.112;11.622;2023-03-26T18:35:45;6.70;99.90
9658;DHT22;4867;48.112;11.622;2023-03-26T18:38:18;6.60;99.90
9658;DHT22;4867;48.112;11.622;2023-03-26T18:41:05;6.50;99.90
9658;DHT22;4867;48.112;11.622;2023-03-26T18:43:34;6.50;99.90
9658;DHT22;4867;48.112;11.622;2023-03-26T18:46:12;6.40;99.90
9658;DHT22;4867;48.112;11.622;2023-03-26T18:48:40;6.40;99.90
9658;DHT22;4867;48.112;11.622;2023-03-26T18:51:08;6.40;99.90
9658;DHT22;4867;48.112;11.622;2023-03-26T18:53:47;6.30;99.90
9658;DHT22;4867;48.112;11.622;2023-03-26T18:56:25;6.30;99.90
9658;DHT22;4867;48.112;11.622;2023-03-26T18:58:58;6.30;99.90
9658;DHT22;4867;48.112;11.622;2023-03-26T19:01:28;6.30;99.90
9658;DHT22;4867;48.112;11.622;2023-03-26T19:03:58;6.30;99.90
9658;DHT22;4867;48.112;11.622;2023-03-26T19:06:33;6.30;99.90
9658;DHT22;4867;48.112;11.622;2023-03-26T19:09:05;6.20;99.90
9658;DHT22;4867;48.112;11.622;2023-03-26T19:11:55;6.20;99.90
9658;DHT22;4867;48.112;11.622;2023-03-26T19:14:23;6.20;99.90
9658;DHT22;4867;48.112;11.622;2023-03-26T19:17:01;6.10;99.90
9658;DHT22;4867;48.112;11.622;2023-03-26T19:19:31;6.10;99.90
9658;DHT22;4867;48.112;11.622;2023-03-26T19:22:00;6.10;99.90
9658;DHT22;4867;48.112;11.622;2023-03-26T19:24:28;6.10;99.90
9658;DHT22;4867;48.112;11.622;2023-03-26T19:26:55;6.10;99.90
9658;DHT22;4867;48.112;11.622;2023-03-26T19:29:29;6.00;99.90
9658;DHT22;4867;48.112;11.622;2023-03-26T19:32:19;6.10;99.90
9658;DHT22;4867;48.112;11.622;2023-03-26T19:34:47;6.10;99.90
9658;DHT22;4867;48.112;11.622;2023-03-26T19:37:25;6.00;99.90
9658;DHT22;4867;48.112;11.622;2023-03-26T19:39:59;6.10;99.90
9658;DHT22;4867;48.112;11.622;2023-03-26T19:42:29;6.10;99.90
9658;DHT22;4867;48.112;11.622;2023-03-26T19:45:17;6.10;99.90
9658;DHT22;4867;48.112;11.622;2023-03-26T19:47:46;6.00;99.90
9658;DHT22;4867;48.112;11.622;2023-03-26T19:50:32;6.00;99.90
9658;DHT22;4867;48.112;11.622;2023-03-26T19:53:33;6.00;99.90
9658;DHT22;4867;48.112;11.622;2023-03-26T19:58:35;5.90;99.90
9658;DHT22;4867;48.112;11.622;2023-03-26T20:01:04;5.90;99.90
9658;DHT22;4867;48.112;11.622;2023-03-26T20:03:39;5.90;99.90
9658;DHT22;4867;48.112;11.622;2023-03-26T20:06:11;5.90;99.90
9658;DHT22;4867;48.112;11.622;2023-03-26T20:08:39;5.90;99.90
9658;DHT22;4867;48.112;11.622;2023-03-26T20:11:24;6.00;99.90
9658;DHT22;4867;48.112;11.622;2023-03-26T20:13:56;6.00;99.90
9658;DHT22;4867;48.112;11.622;2023-03-26T20:16:31;6.00;99.90
9658;DHT22;4867;48.112;11.622;2023-03-26T20:18:59;6.00;99.90
9658;DHT22;4867;48.112;11.622;2023-03-26T20:21:31;6.00;99.90
9658;DHT22;4867;48.112;11.622;2023-03-26T20:24:01;5.90;99.90
9658;DHT22;4867;48.112;11.622;2023-03-26T20:26:28;5.90;99.90
9658;DHT22;4867;48.112;11.622;2023-03-26T20:28:56;5.90;99.90
9658;DHT22;4867;48.112;11.622;2023-03-26T20:31:24;5.90;99.90
9658;DHT22;4867;48.112;11.622;2023-03-26T20:33:53;5.90;99.90
9658;DHT22;4867;48.112;11.622;2023-03-26T20:36:20;5.90;99.90
9658;DHT22;4867;48.112;11.622;2023-03-26T20:39:02;5.90;99.90
9658;DHT22;4867;48.112;11.622;2023-03-26T20:41:32;5.90;99.90
9658;DHT22;4867;48.112;11.622;2023-03-26T20:44:00;5.90;99.90
9658;DHT22;4867;48.112;11.622;2023-03-26T20:46:29;5.90;99.90
9658;DHT22;4867;48.112;11.622;2023-03-26T20:48:58;5.90;99.90
9658;DHT22;4867;48.112;11.622;2023-03-26T20:51:26;5.80;99.90
9658;DHT22;4867;48.112;11.622;2023-03-26T20:53:55;5.90;99.90
9658;DHT22;4867;48.112;11.622;2023-03-26T20:56:22;5.80;99.90
9658;DHT22;4867;48.112;11.622;2023-03-26T20:58:49;5.90;99.90
9658;DHT22;4867;48.112;11.622;2023-03-26T21:01:37;5.90;99.90
9658;DHT22;4867;48.112;11.622;2023-03-26T21:04:05;5.90;99.90
9658;DHT22;4867;48.112;11.622;2023-03-26T21:06:32;6.00;99.90
9658;DHT22;4867;48.112;11.622;2023-03-26T21:09:00;6.00;99.90
9658;DHT22;4867;48.112;11.622;2023-03-26T21:14:35;6.00;99.90
9658;DHT22;4867;48.112;11.622;2023-03-26T21:17:15;6.00;99.90
9658;DHT22;4867;48.112;11.622;2023-03-26T21:19:43;6.00;99.90
9658;DHT22;4867;48.112;11.622;2023-03-26T21:30:33;6.10;99.90
9658;DHT22;4867;48.112;11.622;2023-03-26T21:33:01;6.00;99.90
9658;DHT22;4867;48.112;11.622;2023-03-26T21:35:31;6.00;99.90
9658;DHT22;4867;48.112;11.622;2023-03-26T21:38:03;6.00;99.90
9658;DHT22;4867;48.112;11.622;2023-03-26T21:40:32;6.00;99.90
9658;DHT22;4867;48.112;11.622;2023-03-26T21:43:00;6.10;99.90
9658;DHT22;4867;48.112;11.622;2023-03-26T21:45:29;6.00;99.90
9658;DHT22;4867;48.112;11.622;2023-03-26T21:47:56;6.00;99.90
9658;DHT22;4867;48.112;11.622;2023-03-26T21:50:24;6.00;99.90
9658;DHT22;4867;48.112;11.622;2023-03-26T21:52:51;6.00;99.90
9658;DHT22;4867;48.112;11.622;2023-03-26T21:55:20;6.00;99.90
9658;DHT22;4867;48.112;11.622;2023-03-26T21:58:23;5.90;99.90
9658;DHT22;4867;48.112;11.622;2023-03-26T22:01:05;5.90;99.90
9658;DHT22;4867;48.112;11.622;2023-03-26T22:04:14;6.00;99.90
9658;DHT22;4867;48.112;11.622;2023-03-26T22:07:26;5.90;99.90
9658;DHT22;4867;48.112;11.622;2023-03-26T22:09:56;5.90;99.90
9658;DHT22;4867;48.112;11.622;2023-03-26T22:12:23;5.90;99.90
9658;DHT22;4867;48.112;11.622;2023-03-26T22:14:51;5.90;99.90
9658;DHT22;4867;48.112;11.622;2023-03-26T22:17:19;5.90;99.90
9658;DHT22;4867;48.112;11.622;2023-03-26T22:19:48;5.80;99.90
9658;DHT22;4867;48.112;11.622;2023-03-26T22:22:15;5.80;99.90
9658;DHT22;4867;48.112;11.622;2023-03-26T22:24:43;5.80;99.90
9658;DHT22;4867;48.112;11.622;2023-03-26T22:27:11;5.80;99.90
9658;DHT22;4867;48.112;11.622;2023-03-26T22:29:39;5.80;99.90
9658;DHT22;4867;48.112;11.622;2023-03-26T22:32:06;5.80;99.90
9658;DHT22;4867;48.112;11.622;2023-03-26T22:34:34;5.80;99.90
9658;DHT22;4867;48.112;11.622;2023-03-26T22:37:01;5.70;99.90
9658;DHT22;4867;48.112;11.622;2023-03-26T22:39:28;5.80;99.90